Time;durP1;ratioP1;P1;durP2;ratioP2;P2;SDS_P1;SDS_P2;PMS_P1;PMS_P2;Temp;Humidity;BMP_temperature;BMP_pressure;BME280_temperature;BME280_humidity;BME280_pressure;Samples;Min_cycle;Max_cycle;Signal;HPM_P1;HPM_P2
2021/06/29 00:02:02;;;;;;;9.57;8.77;;;;;;;;;;5033528;28;20846;-56
2021/06/29 00:04:29;;;;;;;8.57;7.90;;;;;;;;;;5057573;22;20559;-61
2021/06/29 00:06:56;;;;;;;8.43;7.73;;;;;;;;;;5032990;28;20991;-61
2021/06/29 00:09:24;;;;;;;10.10;9.13;;;;;;;;;;5032954;28;20445;-60
2021/06/29 00:11:51;;;;;;;9.23;8.53;;;;;;;;;;5032909;28;20441;-61
2021/06/29 00:14:18;;;;;;;9.80;8.90;;;;;;;;;;5032752;28;20480;-59
2021/06/29 00:16:45;;;;;;;9.43;8.53;;;;;;;;;;5032840;28;20504;-59
2021/06/29 00:19:14;;;;;;;9.60;8.70;;;;;;;;;;5033215;28;20506;-58
2021/06/29 00:21:41;;;;;;;8.77;8.07;;;;;;;;;;5032851;28;21059;-60
2021/06/29 00:24:09;;;;;;;9.10;8.30;;;;;;;;;;5035411;28;20460;-59
2021/06/29 00:26:36;;;;;;;9.20;8.40;;;;;;;;;;5036959;28;20523;-61
2021/06/29 00:29:04;;;;;;;9.30;8.50;;;;;;;;;;5037124;28;20448;-61
2021/06/29 00:31:31;;;;;;;8.50;7.83;;;;;;;;;;5036835;28;20449;-60
2021/06/29 00:33:58;;;;;;;9.00;8.30;;;;;;;;;;5036899;28;20552;-60
2021/06/29 00:36:27;;;;;;;9.03;8.27;;;;;;;;;;5036713;28;20445;-60
2021/06/29 00:38:54;;;;;;;8.53;7.83;;;;;;;;;;5036897;28;20519;-60
2021/06/29 00:41:21;;;;;;;8.60;7.80;;;;;;;;;;5036652;28;20942;-60
2021/06/29 00:43:49;;;;;;;9.47;8.67;;;;;;;;;;5036987;28;20465;-61
2021/06/29 00:46:16;;;;;;;8.40;7.70;;;;;;;;;;5037013;28;20449;-61
2021/06/29 00:48:43;;;;;;;8.93;8.03;;;;;;;;;;5036939;28;20468;-61
2021/06/29 00:51:13;;;;;;;9.37;8.47;;;;;;;;;;5036774;28;20446;-60
2021/06/29 00:53:41;;;;;;;8.53;7.83;;;;;;;;;;5036799;28;20516;-60
2021/06/29 00:56:13;;;;;;;8.93;8.23;;;;;;;;;;5036958;28;20446;-60
2021/06/29 00:58:41;;;;;;;9.57;8.77;;;;;;;;;;5037009;28;20527;-60
2021/06/29 01:01:08;;;;;;;8.43;7.83;;;;;;;;;;5036789;28;20511;-60
2021/06/29 01:03:35;;;;;;;7.73;7.17;;;;;;;;;;5036847;28;20473;-61
2021/06/29 01:06:02;;;;;;;8.03;7.43;;;;;;;;;;5036992;28;20819;-59
2021/06/29 01:08:30;;;;;;;9.07;8.33;;;;;;;;;;5036615;28;20448;-60
2021/06/29 01:10:58;;;;;;;8.40;7.70;;;;;;;;;;5037072;28;20446;-60
2021/06/29 01:13:30;;;;;;;8.10;7.30;;;;;;;;;;5036945;28;20530;-60
2021/06/29 01:15:57;;;;;;;10.53;7.77;;;;;;;;;;5038413;28;20544;-60
2021/06/29 01:18:24;;;;;;;8.47;7.77;;;;;;;;;;5037058;28;20446;-59
2021/06/29 01:20:53;;;;;;;7.43;6.70;;;;;;;;;;5036632;28;20452;-59
2021/06/29 01:23:23;;;;;;;7.37;6.77;;;;;;;;;;5036059;28;20466;-60
2021/06/29 01:26:04;;;;;;;7.27;6.57;;;;;;;;;;5036297;28;20877;-60
2021/06/29 01:28:35;;;;;;;7.33;6.63;;;;;;;;;;5036303;28;20436;-60
2021/06/29 01:31:03;;;;;;;7.27;6.67;;;;;;;;;;5036333;28;20521;-60
2021/06/29 01:33:31;;;;;;;8.50;6.60;;;;;;;;;;5036120;28;20485;-61
2021/06/29 01:35:59;;;;;;;7.20;6.50;;;;;;;;;;5037034;28;20457;-63
2021/06/29 01:38:27;;;;;;;6.70;6.10;;;;;;;;;;5036069;28;20445;-63
2021/06/29 01:40:54;;;;;;;5.97;5.43;;;;;;;;;;5035724;28;20503;-64
2021/06/29 01:43:24;;;;;;;6.40;5.70;;;;;;;;;;5035613;28;20885;-63
2021/06/29 01:45:53;;;;;;;7.83;6.30;;;;;;;;;;5035679;28;20459;-63
2021/06/29 01:48:23;;;;;;;6.03;5.47;;;;;;;;;;5035705;28;20960;-63
2021/06/29 01:50:50;;;;;;;5.63;5.13;;;;;;;;;;5036141;28;20942;-64
2021/06/29 01:53:19;;;;;;;6.67;5.93;;;;;;;;;;5035675;28;20488;-64
2021/06/29 01:55:47;;;;;;;6.93;5.30;;;;;;;;;;5035890;28;20457;-63
2021/06/29 01:58:20;;;;;;;8.77;4.93;;;;;;;;;;5036026;28;20444;-63
2021/06/29 02:00:48;;;;;;;6.53;5.80;;;;;;;;;;5035684;28;20434;-63
2021/06/29 02:03:15;;;;;;;6.80;5.23;;;;;;;;;;5035548;28;20473;-64
2021/06/29 02:05:42;;;;;;;7.23;4.80;;;;;;;;;;5035898;28;20519;-63
2021/06/29 02:08:10;;;;;;;5.07;4.60;;;;;;;;;;5035194;28;20941;-63
2021/06/29 02:10:38;;;;;;;6.50;3.90;;;;;;;;;;5035098;28;20495;-63
2021/06/29 02:13:06;;;;;;;5.40;4.60;;;;;;;;;;5035286;28;20481;-63
2021/06/29 02:15:33;;;;;;;5.63;4.73;;;;;;;;;;5035346;28;20498;-63
2021/06/29 02:18:00;;;;;;;4.87;4.43;;;;;;;;;;5035251;28;20453;-63
2021/06/29 02:20:27;;;;;;;8.47;4.17;;;;;;;;;;5034873;28;20949;-63
2021/06/29 02:22:55;;;;;;;5.17;4.27;;;;;;;;;;5034832;28;20937;-64
2021/06/29 02:25:22;;;;;;;8.83;4.00;;;;;;;;;;5035095;28;20472;-63
2021/06/29 02:27:51;;;;;;;5.60;3.50;;;;;;;;;;5035042;28;20502;-63
2021/06/29 02:30:18;;;;;;;4.13;3.60;;;;;;;;;;5034734;28;20441;-63
2021/06/29 02:32:46;;;;;;;5.40;3.97;;;;;;;;;;5034514;28;20445;-63
2021/06/29 02:35:13;;;;;;;5.40;4.30;;;;;;;;;;5034752;28;20558;-62
2021/06/29 02:37:40;;;;;;;5.40;4.53;;;;;;;;;;5034548;28;20449;-63
2021/06/29 02:40:08;;;;;;;5.67;4.00;;;;;;;;;;5034786;28;20445;-61
2021/06/29 02:42:36;;;;;;;10.73;4.80;;;;;;;;;;5034439;28;21010;-63
2021/06/29 02:45:06;;;;;;;4.80;4.30;;;;;;;;;;5034306;28;20467;-64
2021/06/29 02:47:34;;;;;;;4.57;4.10;;;;;;;;;;5033641;28;20436;-63
2021/06/29 02:50:01;;;;;;;8.60;5.07;;;;;;;;;;5034360;28;20445;-63
2021/06/29 02:52:28;;;;;;;6.30;4.47;;;;;;;;;;5034289;28;20500;-64
2021/06/29 02:54:56;;;;;;;5.17;4.60;;;;;;;;;;5034369;28;20481;-63
2021/06/29 02:57:23;;;;;;;6.50;4.90;;;;;;;;;;5034824;28;20445;-63
2021/06/29 02:59:50;;;;;;;6.20;4.90;;;;;;;;;;5035384;28;20445;-63
2021/06/29 03:02:19;;;;;;;5.73;5.23;;;;;;;;;;5034626;28;20527;-63
2021/06/29 03:04:46;;;;;;;5.10;4.60;;;;;;;;;;5034251;28;20894;-59
2021/06/29 03:07:13;;;;;;;10.40;5.60;;;;;;;;;;5034230;28;20941;-64
2021/06/29 03:09:40;;;;;;;8.20;5.70;;;;;;;;;;5034220;28;20483;-63
2021/06/29 03:12:09;;;;;;;10.93;5.57;;;;;;;;;;5034529;28;20482;-61
2021/06/29 03:14:37;;;;;;;6.00;5.50;;;;;;;;;;5034547;28;20554;-63
2021/06/29 03:17:04;;;;;;;7.77;5.17;;;;;;;;;;5034587;28;20539;-62
2021/06/29 03:19:33;;;;;;;6.50;5.87;;;;;;;;;;5034600;28;20448;-62
2021/06/29 03:22:00;;;;;;;9.80;5.97;;;;;;;;;;5034210;28;21002;-62
2021/06/29 03:24:28;;;;;;;7.70;5.90;;;;;;;;;;5034699;28;20457;-61
2021/06/29 03:26:55;;;;;;;7.93;5.77;;;;;;;;;;5034024;28;20792;-63
2021/06/29 03:29:22;;;;;;;7.07;6.37;;;;;;;;;;5033791;28;20510;-64
2021/06/29 03:31:50;;;;;;;7.70;6.40;;;;;;;;;;5035677;28;20449;-65
2021/06/29 03:34:17;;;;;;;8.17;6.47;;;;;;;;;;5034622;28;20481;-64
2021/06/29 03:36:46;;;;;;;8.50;7.70;;;;;;;;;;5034066;28;20445;-65
2021/06/29 03:39:13;;;;;;;10.13;8.47;;;;;;;;;;5033525;28;20452;-64
2021/06/29 03:41:40;;;;;;;10.03;9.03;;;;;;;;;;5033446;28;20440;-63
2021/06/29 03:44:07;;;;;;;11.07;8.60;;;;;;;;;;5033623;28;20519;-64
2021/06/29 03:46:35;;;;;;;10.10;8.27;;;;;;;;;;5033547;28;20498;-65
2021/06/29 03:49:02;;;;;;;8.93;8.03;;;;;;;;;;5033619;28;20448;-65
2021/06/29 03:51:31;;;;;;;12.07;8.67;;;;;;;;;;5033791;28;20449;-63
2021/06/29 03:53:59;;;;;;;9.40;8.50;;;;;;;;;;5033130;28;21034;-63
2021/06/29 03:56:29;;;;;;;8.90;8.00;;;;;;;;;;5033579;28;20518;-62
2021/06/29 03:58:57;;;;;;;9.87;8.87;;;;;;;;;;5033022;28;20449;-62
2021/06/29 04:01:24;;;;;;;9.50;8.63;;;;;;;;;;5033018;28;20563;-62
2021/06/29 04:03:54;;;;;;;10.83;9.93;;;;;;;;;;5033184;28;20469;-62
2021/06/29 04:08:33;;;;;;;11.10;9.73;;;;;;;;;;5215860;27;20973;-64
2021/06/29 04:11:01;;;;;;;10.73;9.60;;;;;;;;;;5194457;27;20515;-64
2021/06/29 04:13:28;;;;;;;9.20;8.40;;;;;;;;;;5186604;27;20489;-63
2021/06/29 04:15:55;;;;;;;9.83;8.97;;;;;;;;;;5172864;27;20998;-64
2021/06/29 04:18:22;;;;;;;11.37;9.23;;;;;;;;;;5172685;27;20444;-63
2021/06/29 04:20:50;;;;;;;10.20;9.20;;;;;;;;;;5173084;27;20495;-64
2021/06/29 04:23:17;;;;;;;11.10;10.17;;;;;;;;;;5172988;27;20447;-63
2021/06/29 04:25:45;;;;;;;9.80;8.90;;;;;;;;;;5173113;27;20438;-64
2021/06/29 04:28:13;;;;;;;10.10;9.07;;;;;;;;;;5172853;27;20474;-62
2021/06/29 04:30:40;;;;;;;10.80;9.80;;;;;;;;;;5173163;27;20436;-62
2021/06/29 04:33:07;;;;;;;8.97;8.07;;;;;;;;;;5172517;27;21034;-62
2021/06/29 04:35:34;;;;;;;8.53;7.83;;;;;;;;;;5172781;27;20443;-63
2021/06/29 04:38:02;;;;;;;9.00;8.20;;;;;;;;;;5172844;27;20443;-63
2021/06/29 04:40:29;;;;;;;7.30;6.50;;;;;;;;;;5172777;27;20913;-63
2021/06/29 04:42:58;;;;;;;8.17;7.33;;;;;;;;;;5172674;27;20452;-63
2021/06/29 04:45:26;;;;;;;7.53;6.93;;;;;;;;;;5172687;27;20866;-63
2021/06/29 04:47:55;;;;;;;7.67;6.83;;;;;;;;;;5172200;27;20527;-63
2021/06/29 04:50:23;;;;;;;8.03;7.33;;;;;;;;;;5182647;27;20443;-64
2021/06/29 04:52:50;;;;;;;7.90;7.20;;;;;;;;;;5172435;27;20430;-64
2021/06/29 04:55:18;;;;;;;7.63;7.03;;;;;;;;;;5172130;27;20443;-63
2021/06/29 04:57:46;;;;;;;7.63;7.07;;;;;;;;;;5172314;27;20427;-63
2021/06/29 05:00:16;;;;;;;8.00;6.90;;;;;;;;;;5171932;27;20488;-63
2021/06/29 05:02:43;;;;;;;6.47;6.07;;;;;;;;;;5172297;27;20427;-64
2021/06/29 05:05:12;;;;;;;7.03;6.40;;;;;;;;;;5172035;27;20443;-63
2021/06/29 05:07:40;;;;;;;7.00;6.40;;;;;;;;;;5171719;27;20530;-64
2021/06/29 05:10:07;;;;;;;7.30;6.70;;;;;;;;;;5171681;27;20926;-62
2021/06/29 05:12:35;;;;;;;7.90;7.20;;;;;;;;;;5171948;27;20455;-64
2021/06/29 05:15:02;;;;;;;7.63;7.03;;;;;;;;;;5171986;27;20512;-62
2021/06/29 05:17:31;;;;;;;8.43;6.67;;;;;;;;;;5170649;27;20439;-63
2021/06/29 05:19:58;;;;;;;10.23;7.87;;;;;;;;;;5158067;27;20439;-65
2021/06/29 05:22:25;;;;;;;8.73;7.83;;;;;;;;;;5158489;27;20495;-66
2021/06/29 05:24:52;;;;;;;8.10;7.40;;;;;;;;;;5158409;27;20877;-65
2021/06/29 05:27:20;;;;;;;7.70;6.90;;;;;;;;;;5159560;27;20475;-66
2021/06/29 05:29:47;;;;;;;7.63;7.03;;;;;;;;;;5158883;27;20444;-63
2021/06/29 05:32:14;;;;;;;8.33;7.53;;;;;;;;;;5158299;27;20935;-64
2021/06/29 05:34:43;;;;;;;7.87;7.17;;;;;;;;;;5158070;27;20463;-63
2021/06/29 05:37:10;;;;;;;6.87;6.27;;;;;;;;;;5158333;27;20439;-65
2021/06/29 05:39:37;;;;;;;8.80;6.83;;;;;;;;;;5158326;27;20448;-62
2021/06/29 05:42:05;;;;;;;13.40;6.63;;;;;;;;;;5158165;27;20444;-63
2021/06/29 05:44:32;;;;;;;6.70;6.10;;;;;;;;;;5158374;27;20459;-63
2021/06/29 05:47:03;;;;;;;7.67;5.73;;;;;;;;;;5158123;27;20896;-62
2021/06/29 05:49:31;;;;;;;6.23;5.63;;;;;;;;;;5157749;27;20479;-62
2021/06/29 05:51:59;;;;;;;6.60;6.00;;;;;;;;;;5158352;27;20451;-64
2021/06/29 05:54:27;;;;;;;7.47;6.80;;;;;;;;;;5158428;27;20463;-63
2021/06/29 05:56:54;;;;;;;7.00;6.30;;;;;;;;;;5159536;27;20493;-63
2021/06/29 05:59:21;;;;;;;6.50;5.90;;;;;;;;;;5158795;27;20440;-63
2021/06/29 06:01:49;;;;;;;7.73;6.63;;;;;;;;;;5158610;27;20448;-63
2021/06/29 06:04:16;;;;;;;6.77;6.07;;;;;;;;;;5160172;27;20463;-64
2021/06/29 06:06:43;;;;;;;7.30;5.30;;;;;;;;;;5157903;27;20528;-62
2021/06/29 06:09:12;;;;;;;6.63;6.10;;;;;;;;;;5158243;27;20444;-63
2021/06/29 06:11:39;;;;;;;7.33;6.63;;;;;;;;;;5158300;27;20869;-64
2021/06/29 06:14:06;;;;;;;6.97;6.40;;;;;;;;;;5157713;27;20464;-62
2021/06/29 06:16:34;;;;;;;6.50;6.00;;;;;;;;;;5158530;27;20449;-63
2021/06/29 06:19:01;;;;;;;6.87;6.27;;;;;;;;;;5159642;27;20456;-64
2021/06/29 06:21:28;;;;;;;7.13;6.43;;;;;;;;;;5160202;27;20444;-63
2021/06/29 06:23:56;;;;;;;10.80;6.80;;;;;;;;;;5162452;27;20520;-64
2021/06/29 06:26:24;;;;;;;7.67;6.67;;;;;;;;;;5179624;22;20487;-55
2021/06/29 06:28:52;;;;;;;7.27;6.57;;;;;;;;;;5094642;28;20479;-56
2021/06/29 06:31:19;;;;;;;7.40;6.00;;;;;;;;;;5093502;28;20442;-56
2021/06/29 06:33:46;;;;;;;8.97;6.77;;;;;;;;;;5094356;28;20492;-56
2021/06/29 06:36:14;;;;;;;7.50;6.67;;;;;;;;;;5094009;28;20463;-56
2021/06/29 06:38:41;;;;;;;6.67;6.17;;;;;;;;;;5094329;28;20924;-56
2021/06/29 06:41:13;;;;;;;7.83;7.03;;;;;;;;;;5099467;28;20440;-57
2021/06/29 06:43:41;;;;;;;7.77;7.07;;;;;;;;;;5104169;28;20432;-56
2021/06/29 06:46:09;;;;;;;9.80;6.23;;;;;;;;;;5095491;28;20945;-61
2021/06/29 06:48:37;;;;;;;8.20;6.10;;;;;;;;;;5094894;28;20893;-61
2021/06/29 06:51:04;;;;;;;7.43;6.70;;;;;;;;;;5094570;28;20923;-61
2021/06/29 06:53:32;;;;;;;6.60;6.00;;;;;;;;;;5093797;28;20498;-55
2021/06/29 06:55:59;;;;;;;7.20;6.50;;;;;;;;;;5094114;28;20504;-55
2021/06/29 06:58:26;;;;;;;7.47;6.30;;;;;;;;;;5093709;28;20440;-55
2021/06/29 07:00:55;;;;;;;6.53;5.93;;;;;;;;;;5094277;28;20497;-54
2021/06/29 07:03:23;;;;;;;9.97;6.60;;;;;;;;;;5093788;28;20940;-55
2021/06/29 07:05:50;;;;;;;6.17;5.63;;;;;;;;;;5093208;28;20937;-56
2021/06/29 07:08:17;;;;;;;5.80;5.07;;;;;;;;;;5093676;28;21032;-55
2021/06/29 07:10:45;;;;;;;7.17;5.30;;;;;;;;;;5094002;28;20454;-55
2021/06/29 07:13:13;;;;;;;7.27;6.00;;;;;;;;;;5093930;28;20893;-55
2021/06/29 07:15:40;;;;;;;5.90;5.37;;;;;;;;;;5093724;28;20496;-55
2021/06/29 07:18:14;;;;;;;6.80;6.30;;;;;;;;;;5093899;28;20468;-56
2021/06/29 07:20:41;;;;;;;5.70;5.20;;;;;;;;;;5093836;28;20444;-56
2021/06/29 07:23:09;;;;;;;7.90;5.00;;;;;;;;;;5093873;28;20482;-56
2021/06/29 07:25:36;;;;;;;5.20;4.80;;;;;;;;;;5093708;28;20545;-56
2021/06/29 07:28:04;;;;;;;5.27;4.80;;;;;;;;;;5093239;28;20485;-55
2021/06/29 07:30:31;;;;;;;5.43;4.93;;;;;;;;;;5093428;28;20446;-56
2021/06/29 07:32:59;;;;;;;5.20;4.70;;;;;;;;;;5094054;28;20450;-55
2021/06/29 07:35:28;;;;;;;5.20;4.80;;;;;;;;;;5093700;28;20560;-55
2021/06/29 07:37:55;;;;;;;6.37;5.77;;;;;;;;;;5093325;28;20466;-55
2021/06/29 07:40:25;;;;;;;5.60;5.20;;;;;;;;;;5094431;28;20451;-55
2021/06/29 07:42:55;;;;;;;8.30;4.97;;;;;;;;;;5092909;28;20452;-55
2021/06/29 07:45:23;;;;;;;5.30;4.90;;;;;;;;;;5093219;28;20439;-54
2021/06/29 07:47:50;;;;;;;4.83;4.27;;;;;;;;;;5093126;28;20982;-55
2021/06/29 07:50:17;;;;;;;5.83;4.40;;;;;;;;;;5093467;28;20534;-54
2021/06/29 07:52:46;;;;;;;4.80;4.30;;;;;;;;;;5093530;28;20449;-55
2021/06/29 07:55:13;;;;;;;6.43;5.37;;;;;;;;;;5093361;28;20452;-55
2021/06/29 07:57:41;;;;;;;4.90;4.50;;;;;;;;;;5092900;28;20469;-55
2021/06/29 08:00:09;;;;;;;5.00;4.60;;;;;;;;;;5093343;28;20453;-55
2021/06/29 08:02:36;;;;;;;5.73;5.23;;;;;;;;;;5093301;28;20455;-55
2021/06/29 08:05:04;;;;;;;5.33;4.93;;;;;;;;;;5093109;28;20442;-55
2021/06/29 08:07:31;;;;;;;5.83;5.13;;;;;;;;;;5093045;28;20478;-55
2021/06/29 08:10:00;;;;;;;5.63;5.13;;;;;;;;;;5093150;28;20508;-55
2021/06/29 08:12:27;;;;;;;5.70;5.20;;;;;;;;;;5093311;28;20495;-55
2021/06/29 08:14:54;;;;;;;6.30;5.70;;;;;;;;;;5093111;28;20808;-55
2021/06/29 08:17:22;;;;;;;5.90;5.30;;;;;;;;;;5093107;28;20816;-56
2021/06/29 08:19:49;;;;;;;6.40;5.80;;;;;;;;;;5093024;28;20438;-55
2021/06/29 08:22:16;;;;;;;5.77;5.33;;;;;;;;;;5092778;28;20986;-55
2021/06/29 08:24:45;;;;;;;6.73;6.23;;;;;;;;;;5093051;28;20445;-55
2021/06/29 08:27:14;;;;;;;5.30;4.80;;;;;;;;;;5092800;28;20520;-55
2021/06/29 08:29:41;;;;;;;6.90;6.30;;;;;;;;;;5092845;28;20821;-55
2021/06/29 08:32:09;;;;;;;5.87;5.30;;;;;;;;;;5092773;28;20456;-55
2021/06/29 08:34:36;;;;;;;6.53;5.83;;;;;;;;;;5092835;28;20457;-55
2021/06/29 08:37:03;;;;;;;6.87;6.27;;;;;;;;;;5092723;28;20622;-55
2021/06/29 08:39:31;;;;;;;11.37;7.30;;;;;;;;;;5092352;28;21012;-55
2021/06/29 08:41:58;;;;;;;7.70;6.60;;;;;;;;;;5092599;28;20937;-55
2021/06/29 08:44:26;;;;;;;7.17;6.60;;;;;;;;;;5092593;28;20446;-55
2021/06/29 08:46:54;;;;;;;7.10;6.47;;;;;;;;;;5092501;28;20461;-55
2021/06/29 08:49:21;;;;;;;6.97;6.37;;;;;;;;;;5092638;28;20535;-55
2021/06/29 08:51:51;;;;;;;5.47;5.07;;;;;;;;;;5092720;28;20454;-55
2021/06/29 08:54:19;;;;;;;6.17;5.77;;;;;;;;;;5094981;28;20455;-55
2021/06/29 08:56:46;;;;;;;6.53;5.87;;;;;;;;;;5096607;28;20465;-54
2021/06/29 08:59:14;;;;;;;9.67;6.80;;;;;;;;;;5096669;28;20441;-55
2021/06/29 09:01:42;;;;;;;7.50;6.80;;;;;;;;;;5096128;28;20942;-55
2021/06/29 09:04:10;;;;;;;5.83;5.40;;;;;;;;;;5096527;28;20451;-54
2021/06/29 09:06:38;;;;;;;5.50;5.00;;;;;;;;;;5096534;28;20462;-55
2021/06/29 09:09:27;;;;;;;6.43;5.83;;;;;;;;;;5096190;28;20895;-54
2021/06/29 09:11:54;;;;;;;5.43;5.03;;;;;;;;;;5092581;28;20502;-55
2021/06/29 09:14:28;;;;;;;4.90;4.47;;;;;;;;;;5097204;28;20447;-56
2021/06/29 09:17:16;;;;;;;7.33;5.70;;;;;;;;;;5096055;28;20465;-52
2021/06/29 09:19:43;;;;;;;7.73;5.60;;;;;;;;;;5096354;28;20481;-53
2021/06/29 09:22:26;;;;;;;5.57;5.00;;;;;;;;;;5095883;28;20435;-54
2021/06/29 09:24:54;;;;;;;6.83;4.50;;;;;;;;;;5096193;28;20469;-54
2021/06/29 09:27:36;;;;;;;4.80;4.50;;;;;;;;;;5095595;28;20517;-54
2021/06/29 09:30:03;;;;;;;5.27;4.73;;;;;;;;;;5094852;28;20964;-55
2021/06/29 09:32:36;;;;;;;5.43;4.90;;;;;;;;;;5095876;28;20456;-55
2021/06/29 09:35:04;;;;;;;5.00;4.50;;;;;;;;;;5095598;28;20485;-54
2021/06/29 09:37:36;;;;;;;4.80;4.33;;;;;;;;;;5095677;28;20520;-55
2021/06/29 09:40:12;;;;;;;5.57;5.10;;;;;;;;;;5095668;28;20424;-54
2021/06/29 09:42:40;;;;;;;5.23;4.70;;;;;;;;;;5095507;28;20440;-54
2021/06/29 09:45:28;;;;;;;8.93;4.83;;;;;;;;;;5095539;28;20445;-55
2021/06/29 09:47:57;;;;;;;4.57;4.17;;;;;;;;;;5094969;28;20534;-55
2021/06/29 09:50:37;;;;;;;4.60;4.20;;;;;;;;;;5095590;28;20453;-54
2021/06/29 09:53:20;;;;;;;4.97;4.43;;;;;;;;;;5095151;28;20461;-54
2021/06/29 09:55:48;;;;;;;5.47;4.17;;;;;;;;;;5095782;28;20444;-56
2021/06/29 09:58:16;;;;;;;4.70;4.20;;;;;;;;;;5095599;28;20438;-56
2021/06/29 10:00:49;;;;;;;4.90;4.50;;;;;;;;;;5095180;28;20933;-55
2021/06/29 10:03:19;;;;;;;6.60;4.50;;;;;;;;;;5095067;28;20469;-55
2021/06/29 10:05:46;;;;;;;6.13;4.50;;;;;;;;;;5095165;28;20529;-56
2021/06/29 10:08:22;;;;;;;4.77;3.80;;;;;;;;;;5094938;28;20546;-55
2021/06/29 10:10:50;;;;;;;5.33;3.70;;;;;;;;;;5094879;28;20514;-54
2021/06/29 10:13:18;;;;;;;4.30;3.90;;;;;;;;;;5094677;28;20505;-56
2021/06/29 10:15:45;;;;;;;5.23;4.20;;;;;;;;;;5095077;28;20449;-55
2021/06/29 10:18:12;;;;;;;7.00;4.63;;;;;;;;;;5094359;28;20462;-55
2021/06/29 10:20:53;;;;;;;4.20;3.80;;;;;;;;;;5094197;28;20443;-55
2021/06/29 10:23:21;;;;;;;5.93;4.50;;;;;;;;;;5094347;28;20532;-55
2021/06/29 10:25:48;;;;;;;5.10;3.70;;;;;;;;;;5094826;28;20847;-55
2021/06/29 10:28:17;;;;;;;4.87;4.40;;;;;;;;;;5094303;28;20489;-55
2021/06/29 10:30:44;;;;;;;3.63;3.33;;;;;;;;;;5094334;28;20943;-55
2021/06/29 10:33:12;;;;;;;4.23;3.30;;;;;;;;;;5094367;28;20433;-53
2021/06/29 10:35:42;;;;;;;7.60;4.57;;;;;;;;;;5094485;28;20515;-52
2021/06/29 10:38:10;;;;;;;4.63;4.03;;;;;;;;;;5094356;28;20472;-54
2021/06/29 10:40:38;;;;;;;7.70;4.60;;;;;;;;;;5093723;28;20450;-55
2021/06/29 10:43:05;;;;;;;4.23;3.80;;;;;;;;;;5094305;28;20499;-53
2021/06/29 10:45:36;;;;;;;4.50;4.10;;;;;;;;;;5093983;28;20516;-54
2021/06/29 10:48:17;;;;;;;4.20;3.80;;;;;;;;;;5093979;28;20461;-54
2021/06/29 10:50:45;;;;;;;3.73;3.40;;;;;;;;;;5094375;28;20446;-54
2021/06/29 10:53:27;;;;;;;7.27;5.83;;;;;;;;;;5093968;28;20995;-54
2021/06/29 10:55:55;;;;;;;4.60;3.80;;;;;;;;;;5093459;28;20443;-55
2021/06/29 10:58:34;;;;;;;4.73;4.23;;;;;;;;;;5093979;28;20441;-55
2021/06/29 11:01:17;;;;;;;4.07;3.67;;;;;;;;;;5094357;28;20433;-55
2021/06/29 11:03:44;;;;;;;3.80;3.47;;;;;;;;;;5093427;28;20514;-56
2021/06/29 11:06:13;;;;;;;4.43;3.47;;;;;;;;;;5093938;28;20836;-55
2021/06/29 11:08:46;;;;;;;4.27;3.23;;;;;;;;;;5093656;28;20574;-54
2021/06/29 11:11:14;;;;;;;4.90;4.37;;;;;;;;;;5093364;28;20430;-54
2021/06/29 11:13:42;;;;;;;3.80;2.87;;;;;;;;;;5093305;28;20526;-55
2021/06/29 11:16:10;;;;;;;4.30;3.40;;;;;;;;;;5093283;28;20466;-53
2021/06/29 11:18:50;;;;;;;3.40;3.10;;;;;;;;;;5093636;28;20494;-54
2021/06/29 11:21:35;;;;;;;3.20;2.70;;;;;;;;;;5093608;28;20454;-55
2021/06/29 11:24:25;;;;;;;3.20;3.00;;;;;;;;;;5093279;28;20452;-55
2021/06/29 11:26:52;;;;;;;2.60;2.40;;;;;;;;;;5093252;28;20465;-55
2021/06/29 11:29:19;;;;;;;3.93;2.70;;;;;;;;;;5093102;28;20555;-52
2021/06/29 11:31:48;;;;;;;3.40;2.00;;;;;;;;;;5092950;28;20494;-54
2021/06/29 11:34:17;;;;;;;2.40;2.20;;;;;;;;;;5093121;28;20932;-54
2021/06/29 11:36:46;;;;;;;2.77;2.57;;;;;;;;;;5093983;28;20469;-56
2021/06/29 11:39:29;;;;;;;3.37;1.77;;;;;;;;;;5093803;28;20944;-55
2021/06/29 11:41:57;;;;;;;5.60;1.90;;;;;;;;;;5093206;28;20439;-54
2021/06/29 11:44:37;;;;;;;3.23;2.30;;;;;;;;;;5093527;28;20443;-55
2021/06/29 11:47:07;;;;;;;3.83;2.00;;;;;;;;;;5093621;28;20886;-54
2021/06/29 11:49:36;;;;;;;2.60;2.23;;;;;;;;;;5092989;28;20973;-55
2021/06/29 11:52:06;;;;;;;2.77;1.93;;;;;;;;;;5092977;28;20487;-55
2021/06/29 11:54:36;;;;;;;2.93;1.93;;;;;;;;;;5093065;28;20485;-54
2021/06/29 11:57:14;;;;;;;1.50;1.40;;;;;;;;;;5092669;28;20468;-55
2021/06/29 11:59:41;;;;;;;2.27;1.80;;;;;;;;;;5092922;28;20843;-54
2021/06/29 12:02:09;;;;;;;2.07;1.87;;;;;;;;;;5099510;28;20447;-54
2021/06/29 12:04:38;;;;;;;3.90;1.80;;;;;;;;;;5100873;28;20444;-55
2021/06/29 12:07:08;;;;;;;2.67;2.43;;;;;;;;;;5098926;28;20496;-55
2021/06/29 12:09:36;;;;;;;2.13;1.93;;;;;;;;;;5097670;28;20562;-55
2021/06/29 12:12:19;;;;;;;3.33;2.10;;;;;;;;;;5095109;28;20451;-55
2021/06/29 12:14:47;;;;;;;2.00;1.80;;;;;;;;;;5093615;28;20448;-55
2021/06/29 12:17:14;;;;;;;2.57;2.33;;;;;;;;;;5092774;28;20585;-55
2021/06/29 12:19:42;;;;;;;1.73;1.60;;;;;;;;;;5093022;28;20626;-54
2021/06/29 12:22:10;;;;;;;3.70;2.27;;;;;;;;;;5092681;28;20854;-55
2021/06/29 12:24:38;;;;;;;2.57;2.20;;;;;;;;;;5093027;28;20443;-55
2021/06/29 12:27:17;;;;;;;2.40;2.20;;;;;;;;;;5120958;22;20546;-61
2021/06/29 12:29:44;;;;;;;3.53;2.43;;;;;;;;;;5116259;28;20574;-60
2021/06/29 12:32:18;;;;;;;3.73;2.40;;;;;;;;;;5117048;28;20938;-61
2021/06/29 12:34:45;;;;;;;3.97;2.40;;;;;;;;;;5117219;28;20446;-61
2021/06/29 12:37:14;;;;;;;3.20;2.90;;;;;;;;;;5117229;28;20465;-62
2021/06/29 12:39:41;;;;;;;3.17;2.93;;;;;;;;;;5117293;28;20447;-60
2021/06/29 12:42:10;;;;;;;2.53;2.20;;;;;;;;;;5116781;28;20443;-61
2021/06/29 12:44:37;;;;;;;2.10;1.80;;;;;;;;;;5117198;28;20456;-62
2021/06/29 12:47:05;;;;;;;2.73;2.10;;;;;;;;;;5116695;28;20476;-61
2021/06/29 12:49:33;;;;;;;2.20;1.70;;;;;;;;;;5116907;28;20560;-61
2021/06/29 12:52:07;;;;;;;1.87;1.63;;;;;;;;;;5116909;28;20949;-62
2021/06/29 12:54:37;;;;;;;2.73;1.87;;;;;;;;;;5116781;28;20482;-61
2021/06/29 12:57:05;;;;;;;2.33;1.60;;;;;;;;;;5116859;28;20472;-61
2021/06/29 12:59:34;;;;;;;2.20;1.80;;;;;;;;;;5116473;28;20444;-60
2021/06/29 13:02:05;;;;;;;3.60;1.90;;;;;;;;;;5116727;28;20448;-61
2021/06/29 13:04:35;;;;;;;2.10;2.00;;;;;;;;;;5116517;28;20433;-61
2021/06/29 13:07:03;;;;;;;3.00;2.40;;;;;;;;;;5116236;28;20516;-62
2021/06/29 13:09:32;;;;;;;2.30;2.00;;;;;;;;;;5116561;28;20529;-61
2021/06/29 13:12:02;;;;;;;1.90;1.80;;;;;;;;;;5116366;28;20502;-62
2021/06/29 13:14:30;;;;;;;1.90;1.50;;;;;;;;;;5116119;28;20455;-60
2021/06/29 13:17:01;;;;;;;2.03;1.30;;;;;;;;;;5116428;28;20456;-62
2021/06/29 13:19:28;;;;;;;2.40;2.20;;;;;;;;;;5116343;28;20818;-59
2021/06/29 13:21:56;;;;;;;1.90;1.80;;;;;;;;;;5116498;28;20508;-61
2021/06/29 13:24:24;;;;;;;1.70;1.60;;;;;;;;;;5115802;28;20993;-61
2021/06/29 13:26:53;;;;;;;1.97;1.60;;;;;;;;;;5115731;28;20993;-61
2021/06/29 13:29:23;;;;;;;2.60;2.40;;;;;;;;;;5116193;28;20464;-61
2021/06/29 13:31:51;;;;;;;2.40;2.20;;;;;;;;;;5115683;28;20516;-61
2021/06/29 13:34:19;;;;;;;1.90;1.73;;;;;;;;;;5116037;28;20451;-61
2021/06/29 13:36:46;;;;;;;2.00;1.80;;;;;;;;;;5115912;28;20448;-61
2021/06/29 13:39:23;;;;;;;2.00;1.90;;;;;;;;;;5115876;28;20444;-62
2021/06/29 13:41:50;;;;;;;2.80;2.50;;;;;;;;;;5115807;28;20428;-60
2021/06/29 13:44:18;;;;;;;3.53;3.23;;;;;;;;;;5116482;28;20454;-59
2021/06/29 13:46:46;;;;;;;4.30;2.47;;;;;;;;;;5116154;28;21016;-61
2021/06/29 13:49:18;;;;;;;3.17;2.87;;;;;;;;;;5115539;28;20483;-61
2021/06/29 13:51:45;;;;;;;2.67;2.47;;;;;;;;;;5115520;28;20942;-61
2021/06/29 13:54:16;;;;;;;2.60;2.10;;;;;;;;;;5115209;28;20962;-61
2021/06/29 13:56:45;;;;;;;12.07;10.60;;;;;;;;;;5115482;28;20448;-62
2021/06/29 13:59:28;;;;;;;10.10;8.57;;;;;;;;;;5114920;28;20557;-60
2021/06/29 14:01:57;;;;;;;11.20;10.20;;;;;;;;;;5115554;28;20433;-60
2021/06/29 14:04:24;;;;;;;14.80;13.40;;;;;;;;;;5115612;28;20447;-61
2021/06/29 14:07:06;;;;;;;3.20;2.90;;;;;;;;;;5114645;28;20478;-61
2021/06/29 14:09:35;;;;;;;2.60;2.40;;;;;;;;;;5114723;28;20460;-59
2021/06/29 14:12:03;;;;;;;2.23;1.83;;;;;;;;;;5115700;28;20445;-61
2021/06/29 14:14:31;;;;;;;4.23;3.37;;;;;;;;;;5115293;28;20833;-60
2021/06/29 14:17:00;;;;;;;2.40;2.20;;;;;;;;;;5115327;28;20472;-59
2021/06/29 14:19:27;;;;;;;3.10;2.50;;;;;;;;;;5114845;28;20448;-60
2021/06/29 14:21:55;;;;;;;2.40;2.20;;;;;;;;;;5115461;28;20533;-60
2021/06/29 14:24:23;;;;;;;2.27;2.10;;;;;;;;;;5115298;28;20862;-59
2021/06/29 14:26:50;;;;;;;2.80;2.60;;;;;;;;;;5114754;28;20451;-61
2021/06/29 14:29:18;;;;;;;2.70;2.20;;;;;;;;;;5115161;28;20920;-60
2021/06/29 14:31:45;;;;;;;2.90;1.87;;;;;;;;;;5115081;28;20500;-60
2021/06/29 14:34:14;;;;;;;3.00;2.10;;;;;;;;;;5114700;28;20446;-60
2021/06/29 14:36:41;;;;;;;2.97;2.63;;;;;;;;;;5114125;28;20485;-60
2021/06/29 14:39:08;;;;;;;2.47;2.30;;;;;;;;;;5114745;28;20456;-60
2021/06/29 14:41:35;;;;;;;3.47;2.33;;;;;;;;;;5114646;28;20516;-61
2021/06/29 14:44:03;;;;;;;5.10;2.90;;;;;;;;;;5114903;28;20443;-61
2021/06/29 14:46:31;;;;;;;3.70;3.40;;;;;;;;;;5114625;28;20473;-60
2021/06/29 14:48:58;;;;;;;5.53;3.20;;;;;;;;;;5113966;28;20470;-60
2021/06/29 14:51:27;;;;;;;2.73;2.43;;;;;;;;;;5115259;28;20483;-59
2021/06/29 14:53:56;;;;;;;3.17;2.70;;;;;;;;;;5115280;28;20828;-60
2021/06/29 14:56:23;;;;;;;2.87;2.57;;;;;;;;;;5114667;28;20453;-60